createdAt,value
2019-05-22T00:02:03.784Z,5.33
2019-05-22T00:04:34.363Z,4.03
2019-05-22T00:07:04.794Z,4.30
2019-05-22T00:09:37.014Z,4.10
2019-05-22T00:12:09.224Z,4.63
2019-05-22T00:14:38.239Z,5.00
2019-05-22T00:17:09.779Z,4.67
2019-05-22T00:19:40.622Z,5.53
2019-05-22T00:22:14.039Z,4.40
2019-05-22T00:24:44.111Z,5.23
2019-05-22T00:27:12.623Z,5.60
2019-05-22T00:29:44.050Z,5.53
2019-05-22T00:32:13.721Z,5.20
2019-05-22T00:34:42.950Z,6.60
2019-05-22T00:37:11.626Z,5.30
2019-05-22T00:39:41.084Z,5.90
2019-05-22T00:42:09.543Z,6.00
2019-05-22T00:44:38.084Z,6.37
2019-05-22T00:47:08.547Z,7.03
2019-05-22T00:49:37.063Z,8.27
2019-05-22T00:52:07.291Z,7.63
2019-05-22T00:54:54.588Z,6.33
2019-05-22T00:57:27.442Z,5.83
2019-05-22T01:00:00.274Z,6.73
2019-05-22T01:02:30.849Z,8.37
2019-05-22T01:04:59.863Z,7.30
2019-05-22T01:07:37.283Z,6.53
2019-05-22T01:10:10.409Z,7.23
2019-05-22T01:12:44.156Z,6.50
2019-05-22T01:15:15.766Z,6.80
2019-05-22T01:17:45.134Z,8.93
2019-05-22T01:20:19.601Z,6.73
2019-05-22T01:22:49.003Z,8.37
2019-05-22T01:25:20.752Z,8.07
2019-05-22T01:27:49.631Z,8.97
2019-05-22T01:30:26.147Z,8.20
2019-05-22T01:32:56.667Z,7.57
2019-05-22T01:35:45.126Z,8.67
2019-05-22T01:38:13.713Z,9.30
2019-05-22T01:40:55.532Z,9.47
2019-05-22T01:43:26.085Z,9.50
2019-05-22T01:45:54.320Z,11.33
2019-05-22T01:48:37.127Z,8.93
2019-05-22T01:51:07.208Z,8.33
2019-05-22T01:53:41.973Z,10.07
2019-05-22T01:56:15.888Z,10.47
2019-05-22T01:58:45.300Z,10.87
2019-05-22T02:01:19.880Z,10.37
2019-05-22T02:03:48.473Z,9.93
2019-05-22T02:06:19.454Z,10.67
2019-05-22T02:09:13.822Z,10.30
2019-05-22T02:11:43.935Z,10.30
2019-05-22T02:14:15.387Z,9.93
2019-05-22T02:16:56.039Z,11.00
2019-05-22T02:19:16.474Z,11.20
2019-05-22T02:21:45.723Z,10.93
2019-05-22T02:24:15.936Z,10.40
2019-05-22T02:26:45.946Z,10.23
2019-05-22T02:29:16.557Z,10.60
2019-05-22T02:31:45.094Z,11.60
2019-05-22T02:34:15.047Z,10.87
2019-05-22T02:36:45.205Z,11.70
2019-05-22T02:39:19.614Z,13.43
2019-05-22T02:41:54.108Z,11.47
2019-05-22T02:44:23.620Z,11.43
2019-05-22T02:46:53.174Z,12.27
2019-05-22T02:49:22.999Z,12.43
2019-05-22T02:51:53.925Z,11.73
2019-05-22T02:54:22.712Z,12.23
2019-05-22T02:56:51.231Z,11.20
2019-05-22T02:59:19.756Z,12.77
2019-05-22T03:01:48.866Z,12.80
2019-05-22T03:04:19.534Z,11.43
2019-05-22T03:06:51.121Z,11.90
2019-05-22T03:09:22.104Z,13.00
2019-05-22T03:11:57.660Z,12.30
2019-05-22T03:14:28.327Z,13.83
2019-05-22T03:17:00.546Z,12.10
2019-05-22T03:19:45.490Z,12.93
2019-05-22T03:22:27.628Z,12.07
2019-05-22T03:24:58.737Z,11.90
2019-05-22T03:27:34.156Z,13.20
2019-05-22T03:30:02.780Z,13.33
2019-05-22T03:32:31.591Z,13.87
2019-05-22T03:35:00.294Z,14.00
2019-05-22T03:37:28.898Z,13.67
2019-05-22T03:39:58.102Z,13.87
2019-05-22T03:42:27.181Z,13.13
2019-05-22T03:44:56.393Z,13.23
2019-05-22T03:47:25.400Z,13.73
2019-05-22T03:49:55.201Z,11.67
2019-05-22T03:52:25.488Z,12.83
2019-05-22T03:54:54.141Z,13.67
2019-05-22T03:57:23.442Z,13.63
2019-05-22T03:59:52.131Z,13.57
2019-05-22T04:02:21.021Z,13.63
2019-05-22T04:04:49.864Z,13.10
2019-05-22T04:07:20.414Z,13.70
2019-05-22T04:09:52.579Z,14.00
2019-05-22T04:12:21.567Z,11.73
2019-05-22T04:14:50.769Z,14.17
2019-05-22T04:17:21.431Z,12.03
2019-05-22T04:19:51.821Z,13.90
2019-05-22T04:22:21.519Z,13.40
2019-05-22T04:24:49.999Z,14.17
2019-05-22T04:27:18.653Z,12.33
2019-05-22T04:29:48.765Z,11.60
2019-05-22T04:32:19.256Z,11.03
2019-05-22T04:34:48.507Z,10.60
2019-05-22T04:37:17.528Z,12.50
2019-05-22T04:39:48.509Z,11.43
2019-05-22T04:42:18.233Z,10.30
2019-05-22T04:45:10.093Z,11.70
2019-05-22T04:47:40.056Z,11.30
2019-05-22T04:50:10.822Z,9.93
2019-05-22T04:52:39.684Z,11.40
2019-05-22T04:55:10.716Z,10.87
2019-05-22T04:57:40.963Z,11.47
2019-05-22T05:00:11.641Z,9.93
2019-05-22T05:02:40.596Z,9.83
2019-05-22T05:05:11.155Z,10.93
2019-05-22T05:07:41.395Z,10.57
2019-05-22T05:10:11.086Z,11.50
2019-05-22T05:12:41.362Z,9.43
2019-05-22T05:15:10.170Z,9.83
2019-05-22T05:17:39.467Z,9.97
2019-05-22T05:20:21.685Z,8.87
2019-05-22T05:22:47.313Z,10.10
2019-05-22T05:25:17.293Z,9.83
2019-05-22T05:27:46.885Z,9.77
2019-05-22T05:30:17.678Z,10.10
2019-05-22T05:32:47.557Z,9.70
2019-05-22T05:35:18.040Z,9.07
2019-05-22T05:37:47.834Z,8.53
2019-05-22T05:40:33.648Z,7.97
2019-05-22T05:43:03.387Z,9.80
2019-05-22T05:45:33.067Z,9.23
2019-05-22T05:48:03.853Z,8.77
2019-05-22T05:50:39.681Z,9.17
2019-05-22T05:53:06.131Z,10.00
2019-05-22T05:55:40.940Z,7.87
2019-05-22T05:58:27.710Z,9.17
2019-05-22T06:01:03.880Z,7.50
2019-05-22T06:03:36.883Z,8.67
2019-05-22T06:06:28.183Z,7.27
2019-05-22T06:08:59.790Z,7.30
2019-05-22T06:11:40.251Z,7.40
2019-05-22T06:14:11.388Z,7.67
2019-05-22T06:16:42.974Z,6.33
2019-05-22T06:19:12.464Z,8.40
2019-05-22T06:21:48.786Z,6.57
2019-05-22T06:24:36.589Z,6.70
2019-05-22T06:27:11.332Z,6.67
2019-05-22T06:29:48.885Z,5.83
2019-05-22T06:32:37.642Z,6.40
2019-05-22T06:35:07.695Z,7.03
2019-05-22T06:37:54.470Z,6.97
2019-05-22T06:40:23.757Z,6.10
2019-05-22T06:43:20.859Z,6.13
2019-05-22T06:45:49.476Z,5.07
2019-05-22T06:48:18.062Z,5.93
2019-05-22T06:50:49.291Z,5.97
2019-05-22T06:53:17.027Z,5.53
2019-05-22T06:55:45.567Z,5.17
2019-05-22T06:58:14.281Z,5.47
2019-05-22T07:00:43.163Z,4.50
2019-05-22T07:03:12.181Z,4.57
2019-05-22T07:05:41.470Z,5.50
2019-05-22T07:08:10.178Z,4.83
2019-05-22T07:10:39.579Z,5.40
2019-05-22T07:13:11.309Z,4.80
2019-05-22T07:15:41.769Z,4.93
2019-05-22T07:18:13.057Z,4.90
2019-05-22T07:20:42.557Z,4.80
2019-05-22T07:23:19.169Z,4.30
2019-05-22T07:25:49.262Z,3.80
2019-05-22T07:28:19.393Z,6.00
2019-05-22T07:30:48.851Z,4.17
2019-05-22T07:33:18.608Z,4.00
2019-05-22T07:36:07.836Z,4.07
2019-05-22T07:38:19.321Z,4.30
2019-05-22T07:40:50.417Z,3.97
2019-05-22T07:43:20.166Z,6.83
2019-05-22T07:45:49.418Z,4.60
2019-05-22T07:48:18.032Z,3.90
2019-05-22T07:50:48.704Z,4.67
2019-05-22T07:53:17.382Z,4.10
2019-05-22T07:55:46.667Z,5.10
2019-05-22T07:58:16.792Z,4.57
2019-05-22T08:00:48.999Z,5.33
2019-05-22T08:03:20.234Z,5.43
2019-05-22T08:05:51.851Z,6.57
2019-05-22T08:08:22.414Z,6.30
2019-05-22T08:10:52.422Z,5.40
2019-05-22T08:13:21.727Z,5.73
2019-05-22T08:15:51.217Z,7.00
2019-05-22T08:18:20.283Z,7.20
2019-05-22T08:20:48.967Z,6.93
2019-05-22T08:23:18.671Z,7.23
2019-05-22T08:25:47.126Z,7.53
2019-05-22T08:28:16.381Z,7.60
2019-05-22T08:30:45.652Z,7.00
2019-05-22T08:33:16.502Z,6.83
2019-05-22T08:35:45.378Z,5.67
2019-05-22T08:38:14.074Z,7.20
2019-05-22T08:40:43.547Z,6.77
2019-05-22T08:43:13.087Z,7.33
2019-05-22T08:45:41.831Z,6.33
2019-05-22T08:48:12.095Z,6.97
2019-05-22T08:50:42.139Z,6.50
2019-05-22T08:53:14.091Z,8.97
2019-05-22T08:55:43.574Z,6.13
2019-05-22T08:58:13.926Z,7.63
2019-05-22T09:00:42.799Z,6.40
2019-05-22T09:03:11.483Z,6.60
2019-05-22T09:05:40.025Z,6.80
2019-05-22T09:08:08.570Z,6.97
2019-05-22T09:10:37.291Z,6.17
2019-05-22T09:13:05.825Z,7.30
2019-05-22T09:15:34.905Z,6.23
2019-05-22T09:18:04.160Z,6.07
2019-05-22T09:20:47.994Z,6.80
2019-05-22T09:23:06.145Z,5.90
2019-05-22T09:25:35.795Z,7.37
2019-05-22T09:28:05.236Z,6.53
2019-05-22T09:30:34.023Z,6.13
2019-05-22T09:33:03.275Z,7.03
2019-05-22T09:35:32.083Z,5.37
2019-05-22T09:38:00.989Z,6.00
2019-05-22T09:40:30.162Z,5.90
2019-05-22T09:42:58.963Z,6.90
2019-05-22T09:45:27.411Z,6.60
2019-05-22T09:47:56.692Z,5.93
2019-05-22T09:50:26.079Z,7.03
2019-05-22T09:52:57.991Z,6.80
2019-05-22T09:55:24.783Z,6.70
2019-05-22T09:57:53.597Z,6.27
2019-05-22T10:00:22.143Z,6.60
2019-05-22T10:02:50.831Z,5.80
2019-05-22T10:05:19.536Z,5.73
2019-05-22T10:08:00.088Z,6.57
2019-05-22T10:10:19.173Z,6.10
2019-05-22T10:12:47.860Z,5.93
2019-05-22T10:15:18.026Z,6.47
2019-05-22T10:17:49.221Z,5.60
2019-05-22T10:20:19.609Z,5.63
2019-05-22T10:22:48.097Z,5.80
2019-05-22T10:25:17.394Z,7.30
2019-05-22T10:27:47.473Z,5.90
2019-05-22T10:30:22.383Z,7.00
2019-05-22T10:32:51.389Z,6.83
2019-05-22T10:35:23.910Z,5.33
2019-05-22T10:37:53.009Z,6.30
2019-05-22T10:40:22.318Z,6.30
2019-05-22T10:42:50.844Z,6.30
2019-05-22T10:45:19.656Z,6.10
2019-05-22T10:47:49.165Z,6.27
2019-05-22T10:50:18.593Z,5.83
2019-05-22T10:52:53.402Z,5.33
2019-05-22T10:55:19.785Z,5.93
2019-05-22T10:57:48.767Z,6.23
2019-05-22T11:00:19.107Z,5.57
2019-05-22T11:02:48.198Z,5.57
2019-05-22T11:05:19.856Z,4.60
2019-05-22T11:07:50.317Z,5.17
2019-05-22T11:10:20.976Z,5.63
2019-05-22T11:12:50.484Z,5.13
2019-05-22T11:15:19.385Z,5.00
2019-05-22T11:17:48.185Z,4.33
2019-05-22T11:20:16.976Z,5.00
2019-05-22T11:22:45.496Z,4.90
2019-05-22T11:25:15.859Z,4.53
2019-05-22T11:27:45.282Z,5.43
2019-05-22T11:30:15.769Z,4.90
2019-05-22T11:32:45.470Z,4.17
2019-05-22T11:35:15.695Z,4.47
2019-05-22T11:37:44.325Z,4.60
2019-05-22T11:40:14.568Z,4.50
2019-05-22T11:42:43.740Z,3.93
2019-05-22T11:45:13.001Z,3.97
2019-05-22T11:47:41.948Z,4.90
2019-05-22T11:50:12.551Z,4.70
2019-05-22T11:52:42.042Z,5.00
2019-05-22T11:55:12.838Z,4.40
2019-05-22T11:57:43.346Z,5.17
2019-05-22T12:00:15.252Z,4.93
2019-05-22T12:02:45.167Z,4.50
2019-05-22T12:05:15.306Z,4.43
2019-05-22T12:07:44.641Z,4.63
2019-05-22T12:10:14.833Z,4.17
2019-05-22T12:12:44.656Z,4.40
2019-05-22T12:15:15.791Z,4.50
2019-05-22T12:17:44.898Z,4.23
2019-05-22T12:20:14.458Z,4.17
2019-05-22T12:22:43.351Z,4.13
2019-05-22T12:25:13.545Z,4.43
2019-05-22T12:27:42.561Z,4.83
2019-05-22T12:30:13.556Z,4.47
2019-05-22T12:32:42.141Z,4.47
2019-05-22T12:35:13.897Z,4.00
2019-05-22T12:37:42.926Z,4.63
2019-05-22T12:40:14.246Z,3.77
2019-05-22T12:42:44.317Z,5.13
2019-05-22T12:45:13.673Z,3.80
2019-05-22T12:47:43.261Z,3.50
2019-05-22T12:50:15.350Z,3.80
2019-05-22T12:52:47.266Z,4.27
2019-05-22T12:55:16.965Z,3.83
2019-05-22T12:57:45.914Z,3.20
2019-05-22T13:00:15.674Z,4.60
2019-05-22T13:02:44.426Z,3.53
2019-05-22T13:05:14.400Z,4.40
2019-05-22T13:07:43.356Z,3.60
2019-05-22T13:10:12.104Z,4.60
2019-05-22T13:12:40.624Z,3.70
2019-05-22T13:15:10.806Z,3.77
2019-05-22T13:17:40.745Z,4.20
2019-05-22T13:20:10.099Z,3.73
2019-05-22T13:22:42.590Z,3.80
2019-05-22T13:25:12.148Z,3.40
2019-05-22T13:27:41.391Z,4.27
2019-05-22T13:30:13.288Z,3.93
2019-05-22T13:32:44.024Z,4.53
2019-05-22T13:35:15.196Z,3.67
2019-05-22T13:37:44.324Z,3.77
2019-05-22T13:40:26.999Z,3.80
2019-05-22T13:42:44.593Z,3.37
2019-05-22T13:45:28.463Z,3.80
2019-05-22T13:47:45.825Z,3.80
2019-05-22T13:50:17.099Z,3.93
2019-05-22T13:52:46.583Z,3.70
2019-05-22T13:55:15.725Z,3.53
2019-05-22T13:57:44.541Z,6.60
2019-05-22T14:00:16.929Z,3.07
2019-05-22T14:02:45.478Z,4.90
2019-05-22T14:05:15.339Z,3.63
2019-05-22T14:07:44.154Z,3.70
2019-05-22T14:10:13.740Z,3.27
2019-05-22T14:12:42.322Z,3.30
2019-05-22T14:15:11.708Z,3.80
2019-05-22T14:17:40.599Z,4.73
2019-05-22T14:20:09.900Z,3.90
2019-05-22T14:22:38.416Z,4.20
2019-05-22T14:25:08.757Z,3.60
2019-05-22T14:27:41.681Z,4.17
2019-05-22T14:30:09.193Z,3.70
2019-05-22T14:32:38.071Z,3.63
2019-05-22T14:35:07.677Z,3.60
2019-05-22T14:37:36.664Z,4.33
2019-05-22T14:40:08.268Z,3.83
2019-05-22T14:42:37.933Z,3.93
2019-05-22T14:45:08.416Z,3.87
2019-05-22T14:47:36.960Z,4.47
2019-05-22T14:50:09.879Z,4.00
2019-05-22T14:52:38.683Z,3.50
2019-05-22T14:55:08.365Z,3.50
2019-05-22T14:57:37.953Z,4.10
2019-05-22T15:00:08.637Z,3.57
2019-05-22T15:02:37.187Z,3.70
2019-05-22T15:05:09.382Z,3.27
2019-05-22T15:07:38.105Z,4.50
2019-05-22T15:10:10.003Z,4.20
2019-05-22T15:12:38.630Z,6.13
2019-05-22T15:15:08.496Z,4.20
2019-05-22T15:17:37.236Z,3.53
2019-05-22T15:20:11.630Z,4.10
2019-05-22T15:22:40.358Z,3.70
2019-05-22T15:25:09.812Z,3.40
2019-05-22T15:27:38.521Z,3.50
2019-05-22T15:30:11.666Z,3.60
2019-05-22T15:32:40.184Z,3.10
2019-05-22T15:35:09.796Z,3.63
2019-05-22T15:37:40.689Z,3.20
2019-05-22T15:40:10.330Z,3.50
2019-05-22T15:42:44.580Z,3.10
2019-05-22T15:45:19.796Z,3.03
2019-05-22T15:47:55.571Z,3.37
2019-05-22T15:50:26.809Z,3.37
2019-05-22T15:52:57.050Z,3.87
2019-05-22T15:55:30.099Z,4.00
2019-05-22T15:58:00.656Z,3.60
2019-05-22T16:00:34.544Z,4.40
2019-05-22T16:03:12.499Z,3.40
2019-05-22T16:05:43.470Z,4.17
2019-05-22T16:08:13.080Z,3.50
2019-05-22T16:10:43.335Z,3.87
2019-05-22T16:13:14.923Z,3.60
2019-05-22T16:15:46.310Z,4.60
2019-05-22T16:18:16.949Z,3.20
2019-05-22T16:20:47.033Z,3.80
2019-05-22T16:23:16.181Z,3.53
2019-05-22T16:25:44.953Z,3.70
2019-05-22T16:28:14.951Z,4.10
2019-05-22T16:30:44.577Z,3.70
2019-05-22T16:33:13.900Z,3.93
2019-05-22T16:35:42.415Z,4.33
2019-05-22T16:38:11.519Z,3.03
2019-05-22T16:40:41.424Z,3.50
2019-05-22T16:43:10.089Z,3.67
2019-05-22T16:45:39.290Z,3.93
2019-05-22T16:48:09.273Z,3.97
2019-05-22T16:50:40.802Z,3.53
2019-05-22T16:53:12.143Z,3.60
2019-05-22T16:55:42.597Z,3.90
2019-05-22T16:58:12.125Z,3.50
2019-05-22T17:00:42.843Z,4.10
2019-05-22T17:03:12.724Z,4.67
2019-05-22T17:05:41.539Z,3.97
2019-05-22T17:08:10.844Z,3.47
2019-05-22T17:10:40.235Z,3.20
2019-05-22T17:13:12.104Z,3.07
2019-05-22T17:15:40.345Z,2.80
2019-05-22T17:18:09.982Z,3.00
2019-05-22T17:20:39.052Z,3.40
2019-05-22T17:23:07.769Z,3.17
2019-05-22T17:25:37.017Z,2.50
2019-05-22T17:28:06.697Z,2.63
2019-05-22T17:30:36.843Z,2.63
2019-05-22T17:33:06.993Z,2.77
2019-05-22T17:35:37.555Z,2.40
2019-05-22T17:38:08.600Z,2.87
2019-05-22T17:40:37.685Z,2.60
2019-05-22T17:43:09.453Z,2.60
2019-05-22T17:45:40.126Z,3.00
2019-05-22T17:48:09.514Z,3.40
2019-05-22T17:50:38.512Z,3.30
2019-05-22T17:53:07.240Z,3.43
2019-05-22T17:55:35.777Z,4.17
2019-05-22T17:58:04.410Z,2.90
2019-05-22T18:00:34.690Z,2.90
2019-05-22T18:03:04.238Z,3.00
2019-05-22T18:05:33.431Z,3.03
2019-05-22T18:08:02.514Z,2.87
2019-05-22T18:10:33.866Z,3.60
2019-05-22T18:13:03.372Z,3.57
2019-05-22T18:15:31.885Z,3.63
2019-05-22T18:18:00.734Z,3.57
2019-05-22T18:20:41.813Z,4.20
2019-05-22T18:23:00.150Z,3.40
2019-05-22T18:25:28.904Z,3.30
2019-05-22T18:27:58.076Z,3.10
2019-05-22T18:30:28.857Z,3.70
2019-05-22T18:32:57.446Z,3.37
2019-05-22T18:35:26.095Z,3.77
2019-05-22T18:37:54.618Z,3.37
2019-05-22T18:40:23.314Z,2.87
2019-05-22T18:42:51.945Z,3.23
2019-05-22T18:45:22.201Z,2.90
2019-05-22T18:47:50.647Z,3.70
2019-05-22T18:50:20.252Z,3.00
2019-05-22T18:52:50.813Z,3.50
2019-05-22T18:55:19.667Z,3.43
2019-05-22T18:57:48.360Z,3.30
2019-05-22T19:00:21.568Z,3.63
2019-05-22T19:02:50.415Z,3.40
2019-05-22T19:05:22.060Z,3.77
2019-05-22T19:07:50.801Z,5.33
2019-05-22T19:10:20.678Z,3.90
2019-05-22T19:12:49.772Z,3.57
2019-05-22T19:15:20.063Z,3.27
2019-05-22T19:17:48.864Z,3.50
2019-05-22T19:20:17.535Z,3.10
2019-05-22T19:22:59.611Z,3.53
2019-05-22T19:25:17.416Z,3.10
2019-05-22T19:27:46.157Z,3.90
2019-05-22T19:30:16.238Z,3.20
2019-05-22T19:32:44.828Z,3.03
2019-05-22T19:35:13.752Z,3.00
2019-05-22T19:37:42.630Z,3.40
2019-05-22T19:40:12.461Z,2.97
2019-05-22T19:42:41.681Z,3.40
2019-05-22T19:45:11.073Z,3.17
2019-05-22T19:47:43.147Z,4.90
2019-05-22T19:50:22.871Z,3.00
2019-05-22T19:52:43.351Z,3.13
2019-05-22T19:55:12.633Z,2.90
2019-05-22T19:57:41.456Z,2.90
2019-05-22T20:00:11.334Z,3.43
2019-05-22T20:02:39.999Z,3.97
2019-05-22T20:05:08.914Z,2.70
2019-05-22T20:07:39.175Z,2.80
2019-05-22T20:10:08.606Z,3.03
2019-05-22T20:12:37.126Z,3.47
2019-05-22T20:15:08.158Z,2.53
2019-05-22T20:17:37.357Z,3.70
2019-05-22T20:20:08.573Z,3.00
2019-05-22T20:22:37.357Z,3.00
2019-05-22T20:25:08.998Z,3.30
2019-05-22T20:27:38.263Z,3.07
2019-05-22T20:30:10.281Z,3.70
2019-05-22T20:32:39.311Z,3.67
2019-05-22T20:35:09.026Z,3.13
2019-05-22T20:37:38.333Z,3.00
2019-05-22T20:40:08.563Z,3.63
2019-05-22T20:42:37.972Z,3.83
2019-05-22T20:45:07.020Z,3.80
2019-05-22T20:47:38.671Z,4.10
2019-05-22T20:50:11.200Z,3.87
2019-05-22T20:52:40.052Z,4.10
2019-05-22T20:55:09.599Z,3.67
2019-05-22T20:57:38.154Z,4.00
2019-05-22T21:00:12.706Z,3.77
2019-05-22T21:02:42.867Z,4.07
2019-05-22T21:05:13.033Z,3.70
2019-05-22T21:07:46.274Z,3.50
2019-05-22T21:10:15.698Z,3.80
2019-05-22T21:12:44.953Z,3.50
2019-05-22T21:15:14.007Z,3.30
2019-05-22T21:17:43.766Z,3.80
2019-05-22T21:20:14.751Z,3.40
2019-05-22T21:22:44.534Z,3.90
2019-05-22T21:25:13.457Z,2.80
2019-05-22T21:27:42.544Z,3.50
2019-05-22T21:30:12.731Z,4.57
2019-05-22T21:32:41.239Z,3.80
2019-05-22T21:35:10.252Z,3.33
2019-05-22T21:37:40.380Z,4.30
2019-05-22T21:40:09.651Z,4.60
2019-05-22T21:42:40.784Z,4.07
2019-05-22T21:45:11.050Z,3.73
2019-05-22T21:47:41.528Z,3.50
2019-05-22T21:50:11.346Z,3.83
2019-05-22T21:52:40.199Z,3.20
2019-05-22T21:55:10.402Z,3.53
2019-05-22T21:57:39.657Z,3.47
2019-05-22T22:00:34.714Z,4.57
2019-05-22T22:03:05.773Z,3.63
2019-05-22T22:05:35.540Z,3.90
2019-05-22T22:08:04.945Z,4.47
2019-05-22T22:10:33.801Z,3.97
2019-05-22T22:13:07.425Z,4.40
2019-05-22T22:15:35.326Z,5.20
2019-05-22T22:18:04.545Z,4.33
2019-05-22T22:20:33.635Z,3.77
2019-05-22T22:23:02.547Z,4.13
2019-05-22T22:25:31.213Z,3.43
2019-05-22T22:28:01.204Z,3.90
2019-05-22T22:30:31.455Z,3.37
2019-05-22T22:33:05.053Z,3.90
2019-05-22T22:35:33.888Z,3.97
2019-05-22T22:38:03.264Z,4.70
2019-05-22T22:40:31.833Z,4.80
2019-05-22T22:43:04.194Z,4.60
2019-05-22T22:45:36.822Z,4.30
2019-05-22T22:48:05.897Z,4.33
2019-05-22T22:50:36.115Z,4.13
2019-05-22T22:53:06.136Z,4.20
2019-05-22T22:55:34.899Z,4.53
2019-05-22T22:58:16.493Z,4.10
2019-05-22T23:00:38.411Z,3.77
2019-05-22T23:03:11.030Z,4.03
2019-05-22T23:05:42.203Z,5.03
2019-05-22T23:08:14.587Z,4.20
2019-05-22T23:10:44.549Z,3.83
2019-05-22T23:13:14.748Z,3.77
2019-05-22T23:15:45.841Z,4.47
2019-05-22T23:18:18.526Z,3.60
2019-05-22T23:20:45.894Z,4.70
2019-05-22T23:23:13.886Z,4.40
2019-05-22T23:25:43.129Z,4.17
2019-05-22T23:28:12.509Z,4.33
2019-05-22T23:30:41.723Z,3.70
2019-05-22T23:33:10.700Z,3.87
2019-05-22T23:35:39.840Z,3.57
2019-05-22T23:38:08.281Z,3.93
2019-05-22T23:40:37.597Z,4.00
2019-05-22T23:43:07.252Z,4.37
2019-05-22T23:45:36.019Z,5.03
2019-05-22T23:48:09.205Z,4.27
2019-05-22T23:50:39.085Z,4.33
2019-05-22T23:53:10.231Z,4.40
2019-05-22T23:55:40.742Z,5.03
2019-05-22T23:58:12.137Z,4.40
